• Join FlightAware (Why Join?)
  • Login
  • US Flag 
09:52AM EDT


 

Airport Tracker/Info


-or-


 

Live Flight TrackerFlight Track Log ✈ EJA312 ✈ 13-Oct-2013 ✈ KSDF - KDLZ

Flight Track Log - Related Links

Times and Time Zones

All times are in EDT time to prevent confusion due to time zone crossing. See the EJA312 flight status page for this flight to view local times or setup timezone preferences in your user account.

Time Position Orientation Groundspeed Altitude Reporting Facility
EDT Latitude Longitude Course Direction KTS MPH feet Rate Location/Type
07:13PM 38.2167 -85.7500 341° North 195 224 4,400  Level Louisville TRACON
07:14PM 38.2997 -85.7669 351° North 233 268 9,100 2,280 Climbing Indianapolis Center
07:15PM 38.3606 -85.6992 41° Northeast 296 341 10,000 960 Climbing Indianapolis Center
07:16PM 38.4225 -85.6067 49° Northeast 328 377 11,100 2,700 Climbing Indianapolis Center
07:17PM 38.4944 -85.5003 49° Northeast 331 381 15,700 3,900 Climbing Indianapolis Center
07:18PM 38.1846 -85.9434 341° North  Level FlightAware Approximate
07:18PM 38.5506 -85.4158 50° Northeast 315 362 19,100  Level Indianapolis Center
07:19PM 38.6033 -85.3347 50° Northeast 301 346 21,900 1,860 Climbing Indianapolis Center
07:20PM 38.6600 -85.2497 49° Northeast 306 352 23,000 480 Climbing Indianapolis Center
07:21PM 38.7267 -85.1503 49° Northeast 331 381 23,000  Level Indianapolis Center
07:22PM 38.8033 -85.0297 51° Northeast 383 441 23,000  Level Indianapolis Center
07:23PM 38.8792 -84.9142 50° Northeast 418 481 23,000  Level Indianapolis Center
07:25PM 38.9528 -84.8019 50° Northeast 413 475 23,000  Level Indianapolis Center
07:26PM 39.0386 -84.6681 50° Northeast 406 467 23,000  Level Indianapolis Center
07:27PM 39.1033 -84.5481 55° Northeast 409 471 23,000  Level Indianapolis Center
07:28PM 39.1678 -84.4275 55° Northeast 408 470 23,000 -660 Level Indianapolis Center
07:29PM 39.2358 -84.3053 54° Northeast 419 482 21,700 -1,380 Descending Indianapolis Center
07:30PM 39.3053 -84.1767 55° Northeast 436 502 20,200 -1,500 Descending Indianapolis Center
07:31PM 39.3550 -84.0394 65° Northeast 427 491 18,700 -1,320 Descending Indianapolis Center
07:32PM 39.4047 -83.9117 63° Northeast 404 465 17,500 -1,500 Descending Indianapolis Center
07:33PM 39.4614 -83.7619 64° Northeast 391 450 15,700 -1,800 Descending Indianapolis Center
07:33PM 39.4789 -83.7192 62° Northeast 386 444 15,200 -1,500 Descending Indianapolis Center
07:34PM 39.5025 -83.6528 65° Northeast 385 443 14,400 -1,380 Descending Indianapolis Center
07:34PM 39.5086 -83.6383 61° Northeast 386 444 14,200 -1,740 Descending Indianapolis Center
07:35PM 39.5597 -83.5022 64° Northeast 383 441 12,300 -1,740 Descending Indianapolis Center
07:36PM 39.6150 -83.4136 51° Northeast 377 434 11,000 -1,500 Descending Indianapolis Center
07:36PM 39.6161 -83.4119 49° Northeast 377 434 10,900 -1,020 Descending Indianapolis Center
07:37PM 39.7072 -83.3717 19° North 346 398 10,000 -900 Descending Indianapolis Center
07:37PM 39.7083 -83.3697 53° Northeast 357 411 10,000 -900 Level Indianapolis Center
07:38PM 39.7825 -83.3353 20° North 303 349 9,200 -1,200 Descending Indianapolis Center
07:38PM 39.8033 -83.3258 19° North 304 350 8,800 -1,500 Descending Indianapolis Center
07:39PM 39.8569 -83.3039 17° North 273 314 7,700 -1,380 Descending Indianapolis Center
07:39PM 39.8756 -83.2942 22° Northeast 281 323 7,400 -1,500 Descending Indianapolis Center
07:40PM 39.9317 -83.2700 18° North 283 326 6,200 -1,500 Descending Indianapolis Center
07:40PM 39.9494 -83.2614 20° North 283 326 5,900 -1,500 Descending Indianapolis Center
07:41PM 40.0042 -83.2381 18° North 277 319 4,700 -1,500 Descending Indianapolis Center
07:41PM 40.0217 -83.2289 22° Northeast 280 322 4,400 -720 Descending Indianapolis Center
07:42PM 40.0747 -83.2058 18° North 231 266 4,000 -420 Descending Indianapolis Center
07:42PM 40.0853 -83.2006 21° North 260 299 4,000 -420 Level Indianapolis Center
07:43PM 40.1383 -83.1781 18° North 241 277 3,600 -720 Descending Indianapolis Center
07:43PM 40.1597 -83.1678 20° North 240 276 3,300 -480 Descending Indianapolis Center
07:44PM 40.2164 -83.1422 19° North 237 273 3,000 -300 Descending Indianapolis Center
07:46PM 40.2667 -83.1000 21° North  Level FlightAware Approximate
07:53PM 40.2797 -83.1148 21° North  Level Estimated
07:54PM 40.2797 -83.1148 21° North  Level Estimated